Time;durP1;ratioP1;P1;durP2;ratioP2;P2;SDS_P1;SDS_P2;PMS_P1;PMS_P2;Temp;Humidity;BMP_temperature;BMP_pressure;BME280_temperature;BME280_humidity;BME280_pressure;Samples;Min_cycle;Max_cycle;Signal;HPM_P1;HPM_P2
2022/09/14 00:01:23;;;;;;;10.02;1.90;;;;;;;;;;5089509;28;20028;-75
2022/09/14 00:03:51;;;;;;;7.97;1.70;;;;;;;;;;5089279;28;20036;-75
2022/09/14 00:06:17;;;;;;;7.07;2.03;;;;;;;;;;5091143;28;20404;-75
2022/09/14 00:08:43;;;;;;;7.05;1.80;;;;;;;;;;5089422;28;20039;-74
2022/09/14 00:11:13;;;;;;;9.18;1.95;;;;;;;;;;5089582;28;20039;-75
2022/09/14 00:13:43;;;;;;;10.93;2.10;;;;;;;;;;5089502;28;20071;-74
2022/09/14 00:16:18;;;;;;;7.70;1.77;;;;;;;;;;5089331;28;20024;-74
2022/09/14 00:18:44;;;;;;;6.95;1.70;;;;;;;;;;5089186;28;20028;-74
2022/09/14 00:21:11;;;;;;;10.80;2.40;;;;;;;;;;5089115;28;20027;-74
2022/09/14 00:23:38;;;;;;;8.50;1.88;;;;;;;;;;5089522;28;20469;-74
2022/09/14 00:26:06;;;;;;;6.35;1.70;;;;;;;;;;5089116;28;20028;-74
2022/09/14 00:28:37;;;;;;;7.15;1.73;;;;;;;;;;5089242;28;20083;-74
2022/09/14 00:31:04;;;;;;;5.50;1.70;;;;;;;;;;5090242;28;20038;-74
2022/09/14 00:33:29;;;;;;;11.75;2.00;;;;;;;;;;5092834;28;20036;-74
2022/09/14 00:35:55;;;;;;;7.68;1.65;;;;;;;;;;5074061;28;20036;-74
2022/09/14 00:38:20;;;;;;;6.10;1.73;;;;;;;;;;5092701;28;20031;-74
2022/09/14 00:40:55;;;;;;;8.25;2.00;;;;;;;;;;5092622;28;20028;-75
2022/09/14 00:43:21;;;;;;;6.32;1.70;;;;;;;;;;5092639;28;20361;-74
2022/09/14 00:45:46;;;;;;;8.68;1.65;;;;;;;;;;5092471;28;20025;-74
2022/09/14 00:48:12;;;;;;;5.40;1.58;;;;;;;;;;5092932;28;20063;-74
2022/09/14 00:50:38;;;;;;;6.63;1.70;;;;;;;;;;5092362;28;20093;-74
2022/09/14 00:53:04;;;;;;;10.00;2.00;;;;;;;;;;5092599;28;20024;-74
2022/09/14 00:55:30;;;;;;;5.47;1.60;;;;;;;;;;5092035;28;20032;-74
2022/09/14 00:57:56;;;;;;;5.57;1.70;;;;;;;;;;5074311;28;20077;-74
2022/09/14 01:00:26;;;;;;;7.35;1.70;;;;;;;;;;5092328;28;20480;-74
2022/09/14 01:02:51;;;;;;;7.90;1.80;;;;;;;;;;5092610;28;20024;-74
2022/09/14 01:05:18;;;;;;;9.00;1.80;;;;;;;;;;5091997;28;20027;-74
2022/09/14 01:08:04;;;;;;;8.38;2.00;;;;;;;;;;5091988;28;20560;-74
2022/09/14 01:10:58;;;;;;;7.53;2.10;;;;;;;;;;5091949;28;20035;-75
2022/09/14 01:13:31;;;;;;;8.85;1.70;;;;;;;;;;5091915;28;20028;-74
2022/09/14 01:16:06;;;;;;;8.38;1.83;;;;;;;;;;5091714;28;20028;-74
2022/09/14 01:18:54;;;;;;;5.30;1.70;;;;;;;;;;5092312;28;20043;-74
2022/09/14 01:21:26;;;;;;;8.57;1.95;;;;;;;;;;5091732;28;20028;-74
2022/09/14 01:24:01;;;;;;;9.60;2.00;;;;;;;;;;5091974;28;20022;-74
2022/09/14 01:26:56;;;;;;;5.97;1.70;;;;;;;;;;5091881;28;20425;-75
2022/09/14 01:29:40;;;;;;;7.30;2.03;;;;;;;;;;5073660;28;20029;-74
2022/09/14 01:33:02;;;;;;;8.95;1.88;;;;;;;;;;5091596;28;20467;-74
2022/09/14 01:35:39;;;;;;;6.63;2.08;;;;;;;;;;4989055;28;20402;-74
2022/09/14 01:38:13;;;;;;;7.78;1.90;;;;;;;;;;5091865;28;20463;-74
2022/09/14 01:40:43;;;;;;;9.68;1.95;;;;;;;;;;5091508;28;20436;-74
2022/09/14 01:43:14;;;;;;;9.02;1.98;;;;;;;;;;5091433;28;20111;-75
2022/09/14 01:46:02;;;;;;;9.82;2.08;;;;;;;;;;5091063;28;20036;-74
2022/09/14 01:48:38;;;;;;;8.02;2.13;;;;;;;;;;5090638;28;20077;-74
2022/09/14 01:51:11;;;;;;;9.60;2.10;;;;;;;;;;5091244;28;20107;-74
2022/09/14 01:53:45;;;;;;;9.45;2.47;;;;;;;;;;5091471;28;20024;-75
2022/09/14 01:56:34;;;;;;;7.28;2.08;;;;;;;;;;5091091;28;20028;-74
2022/09/14 01:59:08;;;;;;;9.32;2.30;;;;;;;;;;5091306;28;20038;-74
2022/09/14 02:01:38;;;;;;;9.48;2.72;;;;;;;;;;5090916;28;20027;-74
2022/09/14 02:04:07;;;;;;;13.52;2.72;;;;;;;;;;5091106;28;20016;-74
2022/09/14 02:06:40;;;;;;;11.13;2.40;;;;;;;;;;5090640;28;20051;-74
2022/09/14 02:09:10;;;;;;;7.63;2.55;;;;;;;;;;5090894;28;20127;-74
2022/09/14 02:11:36;;;;;;;10.55;2.83;;;;;;;;;;5090933;28;20069;-74
2022/09/14 02:14:02;;;;;;;8.68;2.70;;;;;;;;;;5090789;28;20058;-74
2022/09/14 02:16:28;;;;;;;13.75;3.38;;;;;;;;;;5090756;28;20077;-74
2022/09/14 02:18:54;;;;;;;12.65;3.22;;;;;;;;;;5091224;28;20036;-74
2022/09/14 02:21:25;;;;;;;11.05;3.08;;;;;;;;;;5090514;28;20498;-74
2022/09/14 02:23:50;;;;;;;12.45;3.28;;;;;;;;;;5090748;28;20058;-74
2022/09/14 02:26:18;;;;;;;10.55;3.42;;;;;;;;;;5090376;28;20051;-74
2022/09/14 02:28:44;;;;;;;13.32;3.35;;;;;;;;;;5090655;28;20028;-75
2022/09/14 02:31:35;;;;;;;13.35;3.33;;;;;;;;;;5090557;28;20498;-74
2022/09/14 02:34:17;;;;;;;15.75;3.55;;;;;;;;;;5090761;28;20043;-74
2022/09/14 02:36:51;;;;;;;9.93;3.20;;;;;;;;;;5090182;28;20058;-75
2022/09/14 02:39:28;;;;;;;12.55;3.30;;;;;;;;;;5072221;28;20036;-74
2022/09/14 02:42:16;;;;;;;10.75;3.08;;;;;;;;;;5090191;28;20024;-74
2022/09/14 02:44:56;;;;;;;14.02;3.28;;;;;;;;;;5090446;28;20039;-74
2022/09/14 02:47:54;;;;;;;11.05;3.08;;;;;;;;;;5090098;28;20111;-74
2022/09/14 02:50:31;;;;;;;14.43;3.28;;;;;;;;;;5090498;28;20039;-74
2022/09/14 02:53:12;;;;;;;14.13;3.08;;;;;;;;;;5090266;28;20049;-74
2022/09/14 02:55:44;;;;;;;8.82;3.03;;;;;;;;;;5089873;28;20024;-74
2022/09/14 02:58:13;;;;;;;11.77;3.03;;;;;;;;;;5090076;28;20045;-75
2022/09/14 03:00:41;;;;;;;11.80;2.90;;;;;;;;;;5090154;28;20507;-74
2022/09/14 03:03:09;;;;;;;7.90;2.92;;;;;;;;;;5090125;28;20051;-75
2022/09/14 03:05:35;;;;;;;10.30;2.65;;;;;;;;;;5090103;28;20027;-74
2022/09/14 03:08:00;;;;;;;11.25;2.75;;;;;;;;;;5089939;28;20055;-74
2022/09/14 03:10:27;;;;;;;12.57;2.85;;;;;;;;;;5090165;28;20032;-75
2022/09/14 03:12:53;;;;;;;9.35;2.85;;;;;;;;;;5089612;28;20028;-75
2022/09/14 03:15:18;;;;;;;10.60;2.38;;;;;;;;;;5089963;28;20073;-74
2022/09/14 03:17:46;;;;;;;14.02;2.75;;;;;;;;;;5089654;28;20081;-74
2022/09/14 03:20:13;;;;;;;10.85;2.45;;;;;;;;;;5090050;28;20024;-73
2022/09/14 03:22:38;;;;;;;12.68;2.45;;;;;;;;;;5089630;28;20055;-75
2022/09/14 03:25:04;;;;;;;11.27;2.30;;;;;;;;;;5089968;28;20051;-74
2022/09/14 03:27:29;;;;;;;9.70;2.42;;;;;;;;;;5089484;28;20028;-75
2022/09/14 03:29:54;;;;;;;8.85;2.30;;;;;;;;;;5089898;28;20028;-74
2022/09/14 03:32:20;;;;;;;9.27;2.28;;;;;;;;;;5089357;28;20024;-74
2022/09/14 03:34:45;;;;;;;11.55;2.53;;;;;;;;;;5089776;28;20475;-74
2022/09/14 03:37:11;;;;;;;10.80;2.33;;;;;;;;;;5089404;28;20087;-75
2022/09/14 03:39:36;;;;;;;8.27;2.28;;;;;;;;;;5089935;28;20016;-74
2022/09/14 03:42:02;;;;;;;10.60;2.42;;;;;;;;;;5089539;28;20503;-75
2022/09/14 03:44:27;;;;;;;9.45;2.28;;;;;;;;;;5089847;28;20460;-74
2022/09/14 03:46:52;;;;;;;10.00;2.15;;;;;;;;;;5089170;28;20020;-74
2022/09/14 03:49:18;;;;;;;10.73;2.28;;;;;;;;;;5089558;28;20451;-75
2022/09/14 03:51:43;;;;;;;9.98;2.40;;;;;;;;;;5089436;28;20016;-74
2022/09/14 03:54:08;;;;;;;10.27;2.45;;;;;;;;;;5089614;28;20388;-74
2022/09/14 03:56:34;;;;;;;7.97;2.40;;;;;;;;;;5089405;28;20028;-75
2022/09/14 03:58:59;;;;;;;8.30;2.03;;;;;;;;;;5089669;28;20036;-74
2022/09/14 04:01:24;;;;;;;12.40;2.40;;;;;;;;;;5089430;28;20081;-74
2022/09/14 04:03:50;;;;;;;7.85;1.98;;;;;;;;;;5089501;28;20028;-74
2022/09/14 04:06:17;;;;;;;7.25;1.90;;;;;;;;;;5090466;28;20051;-74
2022/09/14 04:08:44;;;;;;;7.65;1.77;;;;;;;;;;5093083;28;20068;-74
2022/09/14 04:11:18;;;;;;;7.72;1.88;;;;;;;;;;5075166;28;20061;-74
2022/09/14 04:13:45;;;;;;;8.77;2.35;;;;;;;;;;5093080;28;20111;-74
2022/09/14 04:16:10;;;;;;;6.88;1.50;;;;;;;;;;5074935;28;20524;-74
2022/09/14 04:18:36;;;;;;;6.30;1.58;;;;;;;;;;5093197;28;20028;-75
2022/09/14 04:21:28;;;;;;;7.20;1.75;;;;;;;;;;5093340;28;20024;-74
2022/09/14 04:23:57;;;;;;;6.32;1.90;;;;;;;;;;5087813;28;20692;-74
2022/09/14 04:26:25;;;;;;;7.35;2.00;;;;;;;;;;5092758;28;20519;-75
2022/09/14 04:28:50;;;;;;;6.47;1.80;;;;;;;;;;5092620;28;20059;-74
2022/09/14 04:31:16;;;;;;;6.70;2.05;;;;;;;;;;5093307;28;20496;-74
2022/09/14 04:33:43;;;;;;;8.85;1.80;;;;;;;;;;5092743;28;20028;-74
2022/09/14 04:36:11;;;;;;;8.75;1.98;;;;;;;;;;5093031;28;20035;-74
2022/09/14 04:38:37;;;;;;;7.07;1.75;;;;;;;;;;5092727;28;20035;-74
2022/09/14 04:41:13;;;;;;;5.05;1.83;;;;;;;;;;5092702;28;20555;-75
2022/09/14 04:43:39;;;;;;;6.55;1.63;;;;;;;;;;5092420;28;20084;-74
2022/09/14 04:46:10;;;;;;;6.60;1.70;;;;;;;;;;5092715;28;20032;-74
2022/09/14 04:48:35;;;;;;;5.75;1.67;;;;;;;;;;5092614;28;20074;-74
2022/09/14 04:51:07;;;;;;;6.63;1.80;;;;;;;;;;5092697;28;20417;-74
2022/09/14 04:53:34;;;;;;;8.85;1.55;;;;;;;;;;5092259;28;20028;-74
2022/09/14 04:56:05;;;;;;;9.00;1.88;;;;;;;;;;5092635;28;20043;-74
2022/09/14 04:58:32;;;;;;;7.90;1.77;;;;;;;;;;5091749;28;20024;-74
2022/09/14 05:01:01;;;;;;;12.57;2.00;;;;;;;;;;5092403;28;20024;-74
2022/09/14 05:03:27;;;;;;;6.07;1.97;;;;;;;;;;5092273;28;20020;-74
2022/09/14 05:05:52;;;;;;;8.02;2.03;;;;;;;;;;5092203;28;20273;-75
2022/09/14 05:08:18;;;;;;;6.75;1.70;;;;;;;;;;5091813;28;20171;-74
2022/09/14 05:10:43;;;;;;;9.35;2.10;;;;;;;;;;5092294;28;20075;-75
2022/09/14 05:13:09;;;;;;;6.07;1.70;;;;;;;;;;5091957;28;20051;-74
2022/09/14 05:15:35;;;;;;;11.10;1.90;;;;;;;;;;5092043;28;20428;-74
2022/09/14 05:18:02;;;;;;;9.18;2.20;;;;;;;;;;5091018;28;20490;-74
2022/09/14 05:20:27;;;;;;;7.82;2.35;;;;;;;;;;5091971;28;20028;-75
2022/09/14 05:22:52;;;;;;;6.35;1.75;;;;;;;;;;5091669;28;20462;-74
2022/09/14 05:25:18;;;;;;;5.72;1.80;;;;;;;;;;5073734;28;20059;-74
2022/09/14 05:27:43;;;;;;;8.70;2.10;;;;;;;;;;5091329;28;20039;-74
2022/09/14 05:30:09;;;;;;;11.57;2.53;;;;;;;;;;5091859;28;20046;-74
2022/09/14 05:32:34;;;;;;;7.82;2.17;;;;;;;;;;5091460;28;20035;-74
2022/09/14 05:35:00;;;;;;;9.10;2.03;;;;;;;;;;5091669;28;20484;-75
2022/09/14 05:37:25;;;;;;;11.35;2.40;;;;;;;;;;5091426;28;20036;-74
2022/09/14 05:39:52;;;;;;;9.32;2.22;;;;;;;;;;5091615;28;20059;-75
2022/09/14 05:42:17;;;;;;;6.45;2.15;;;;;;;;;;5091475;28;20039;-74
2022/09/14 05:44:42;;;;;;;11.38;2.30;;;;;;;;;;5073312;28;20032;-76
2022/09/14 05:47:08;;;;;;;9.75;2.13;;;;;;;;;;5091350;28;20498;-74
2022/09/14 05:49:33;;;;;;;8.55;2.58;;;;;;;;;;5091112;28;20062;-74
2022/09/14 05:51:58;;;;;;;9.05;2.60;;;;;;;;;;5091329;28;20474;-74
2022/09/14 05:54:24;;;;;;;7.15;2.30;;;;;;;;;;5091077;28;20107;-74
2022/09/14 05:56:49;;;;;;;9.07;2.47;;;;;;;;;;5091110;28;20032;-74
2022/09/14 05:59:15;;;;;;;12.27;2.33;;;;;;;;;;5072801;28;20548;-74
2022/09/14 06:01:40;;;;;;;10.52;2.20;;;;;;;;;;5091332;28;20545;-75
2022/09/14 06:04:06;;;;;;;8.48;2.35;;;;;;;;;;5091106;28;20016;-74
2022/09/14 06:06:32;;;;;;;11.50;2.50;;;;;;;;;;5081061;28;20040;-74
2022/09/14 06:08:58;;;;;;;6.70;2.22;;;;;;;;;;5111111;27;20077;-75
2022/09/14 06:11:27;;;;;;;8.68;2.08;;;;;;;;;;5111440;28;20019;-74
2022/09/14 06:13:54;;;;;;;11.77;2.60;;;;;;;;;;5110941;28;20019;-74
2022/09/14 06:16:20;;;;;;;14.43;2.92;;;;;;;;;;5111403;28;20036;-74
2022/09/14 06:18:47;;;;;;;10.40;2.50;;;;;;;;;;5111086;28;20024;-75
2022/09/14 06:21:18;;;;;;;15.05;2.53;;;;;;;;;;5111374;28;20099;-74
2022/09/14 06:23:44;;;;;;;11.05;2.47;;;;;;;;;;5109493;28;20024;-74
2022/09/14 06:26:10;;;;;;;9.00;2.28;;;;;;;;;;5111124;28;20102;-75
2022/09/14 06:28:36;;;;;;;8.63;2.40;;;;;;;;;;5109781;28;20605;-75
2022/09/14 06:31:03;;;;;;;9.75;2.30;;;;;;;;;;5111041;28;20110;-77
2022/09/14 06:33:30;;;;;;;9.45;2.30;;;;;;;;;;5110861;28;20527;-75
2022/09/14 06:35:57;;;;;;;11.02;2.45;;;;;;;;;;5111129;28;20031;-74
2022/09/14 06:38:23;;;;;;;10.02;2.75;;;;;;;;;;5110397;27;20138;-75
2022/09/14 06:40:58;;;;;;;9.25;2.55;;;;;;;;;;5110902;28;20027;-75
2022/09/14 06:43:27;;;;;;;11.05;2.22;;;;;;;;;;5110499;28;20031;-76
2022/09/14 06:46:01;;;;;;;7.10;2.00;;;;;;;;;;5110496;28;20030;-77
2022/09/14 06:48:29;;;;;;;10.95;2.40;;;;;;;;;;5110229;28;20020;-75
2022/09/14 06:50:55;;;;;;;10.18;2.25;;;;;;;;;;5110696;28;20023;-75
2022/09/14 06:53:21;;;;;;;12.57;2.70;;;;;;;;;;5110716;28;20031;-75
2022/09/14 06:55:46;;;;;;;11.50;2.30;;;;;;;;;;5110522;28;20375;-76
2022/09/14 06:58:12;;;;;;;10.13;2.10;;;;;;;;;;5110455;28;20076;-75
2022/09/14 07:00:37;;;;;;;11.05;2.17;;;;;;;;;;5110472;28;20024;-75
2022/09/14 07:03:03;;;;;;;12.48;2.42;;;;;;;;;;5110391;28;20027;-76
2022/09/14 07:05:29;;;;;;;8.95;2.20;;;;;;;;;;5110248;28;20395;-76
2022/09/14 07:07:55;;;;;;;12.07;2.25;;;;;;;;;;5092486;28;20040;-75
2022/09/14 07:10:21;;;;;;;8.68;2.30;;;;;;;;;;5090000;28;20032;-76
2022/09/14 07:12:46;;;;;;;7.85;2.00;;;;;;;;;;5090132;28;20028;-78
2022/09/14 07:15:12;;;;;;;12.13;2.30;;;;;;;;;;5089955;28;20069;-75
2022/09/14 07:17:38;;;;;;;12.43;2.08;;;;;;;;;;5089783;28;20051;-78
2022/09/14 07:20:05;;;;;;;9.90;2.08;;;;;;;;;;5089495;28;20073;-75
2022/09/14 07:22:34;;;;;;;9.18;2.17;;;;;;;;;;5089956;28;20024;-78
2022/09/14 07:24:59;;;;;;;10.77;2.40;;;;;;;;;;5089718;28;20638;-74
2022/09/14 07:27:25;;;;;;;10.10;2.10;;;;;;;;;;5089602;28;20049;-77
2022/09/14 07:29:50;;;;;;;10.90;2.30;;;;;;;;;;5071719;28;20111;-74
2022/09/14 07:32:16;;;;;;;9.07;2.08;;;;;;;;;;5090103;28;20084;-74
2022/09/14 07:34:41;;;;;;;8.27;2.00;;;;;;;;;;5071296;28;20116;-74
2022/09/14 07:37:06;;;;;;;8.77;1.60;;;;;;;;;;5089806;28;20107;-75
2022/09/14 07:39:32;;;;;;;11.45;2.28;;;;;;;;;;5089522;28;20059;-74
2022/09/14 07:41:57;;;;;;;6.25;2.00;;;;;;;;;;5093846;28;20016;-75
2022/09/14 07:44:23;;;;;;;7.35;1.90;;;;;;;;;;5093500;28;20283;-74
2022/09/14 07:46:48;;;;;;;6.50;1.60;;;;;;;;;;5076026;28;20544;-75
2022/09/14 07:49:15;;;;;;;10.05;2.00;;;;;;;;;;5093453;28;20621;-75
2022/09/14 07:51:41;;;;;;;7.10;1.60;;;;;;;;;;5093714;28;20077;-74
2022/09/14 07:54:10;;;;;;;9.35;1.90;;;;;;;;;;5093520;28;20028;-75
2022/09/14 07:56:35;;;;;;;7.43;1.95;;;;;;;;;;5093678;28;20694;-74
2022/09/14 07:59:01;;;;;;;6.50;1.60;;;;;;;;;;5093092;28;20047;-74
2022/09/14 08:01:28;;;;;;;10.55;2.03;;;;;;;;;;5093489;28;20107;-74
2022/09/14 08:03:54;;;;;;;8.82;1.95;;;;;;;;;;5093892;28;20027;-75
2022/09/14 08:06:22;;;;;;;5.18;1.88;;;;;;;;;;5093117;28;20040;-74
2022/09/14 08:08:50;;;;;;;7.90;2.03;;;;;;;;;;5093212;28;20415;-74
2022/09/14 08:11:21;;;;;;;6.88;1.77;;;;;;;;;;5093188;28;20099;-74
2022/09/14 08:13:54;;;;;;;10.02;1.80;;;;;;;;;;5093135;28;20144;-74
2022/09/14 08:16:20;;;;;;;4.93;1.38;;;;;;;;;;5093080;28;20024;-74
2022/09/14 08:18:47;;;;;;;9.50;2.10;;;;;;;;;;5093323;28;20035;-74
2022/09/14 08:21:14;;;;;;;8.30;1.55;;;;;;;;;;5093090;28;20074;-74
2022/09/14 08:23:40;;;;;;;6.03;1.58;;;;;;;;;;5092966;28;20116;-74
2022/09/14 08:26:11;;;;;;;5.63;1.52;;;;;;;;;;5092893;28;20099;-74
2022/09/14 08:28:37;;;;;;;5.75;1.77;;;;;;;;;;5092580;28;20120;-73
2022/09/14 08:31:11;;;;;;;8.75;1.55;;;;;;;;;;5092551;28;20458;-74
2022/09/14 08:33:39;;;;;;;6.93;1.85;;;;;;;;;;5092950;28;20414;-74
2022/09/14 08:36:06;;;;;;;7.70;1.73;;;;;;;;;;5092713;28;20024;-77
2022/09/14 08:38:32;;;;;;;11.07;1.80;;;;;;;;;;5092656;28;20016;-74
2022/09/14 08:41:07;;;;;;;11.40;2.00;;;;;;;;;;5093126;28;20027;-74
2022/09/14 08:43:32;;;;;;;8.77;1.80;;;;;;;;;;5092799;28;20027;-74
2022/09/14 08:46:04;;;;;;;10.77;1.90;;;;;;;;;;5092392;28;20024;-73
2022/09/14 08:48:34;;;;;;;8.05;1.80;;;;;;;;;;5092443;28;20119;-74
2022/09/14 08:51:00;;;;;;;11.88;1.75;;;;;;;;;;5092084;28;20027;-74
2022/09/14 08:53:25;;;;;;;9.48;1.65;;;;;;;;;;5091950;28;20036;-74
2022/09/14 08:55:59;;;;;;;9.50;1.60;;;;;;;;;;5092439;28;20060;-74
2022/09/14 08:58:43;;;;;;;9.93;1.75;;;;;;;;;;5092110;28;20214;-73
2022/09/14 09:01:24;;;;;;;8.52;1.90;;;;;;;;;;5092250;28;20073;-74
2022/09/14 09:03:55;;;;;;;9.13;1.83;;;;;;;;;;5074061;28;20070;-74
2022/09/14 09:06:53;;;;;;;9.13;1.77;;;;;;;;;;5091705;28;20059;-73
2022/09/14 09:09:37;;;;;;;8.80;1.92;;;;;;;;;;5092011;28;20082;-73
2022/09/14 09:12:03;;;;;;;8.07;1.85;;;;;;;;;;5092014;28;20024;-74
2022/09/14 09:14:40;;;;;;;8.00;1.80;;;;;;;;;;5092156;28;20028;-74
2022/09/14 09:17:14;;;;;;;8.18;1.60;;;;;;;;;;5092137;28;20062;-74
2022/09/14 09:20:02;;;;;;;12.38;2.00;;;;;;;;;;5091826;28;20035;-74
2022/09/14 09:22:34;;;;;;;8.48;2.10;;;;;;;;;;5091769;28;20111;-74
2022/09/14 09:25:03;;;;;;;7.72;1.92;;;;;;;;;;5091638;28;20024;-74
2022/09/14 09:27:28;;;;;;;11.60;2.15;;;;;;;;;;5073355;28;20028;-74
2022/09/14 09:29:54;;;;;;;8.45;2.15;;;;;;;;;;5091590;28;20024;-74
2022/09/14 09:32:24;;;;;;;6.13;1.73;;;;;;;;;;5091786;28;20030;-74
2022/09/14 09:34:50;;;;;;;5.82;1.77;;;;;;;;;;5091823;28;20024;-74
2022/09/14 09:37:19;;;;;;;8.75;1.90;;;;;;;;;;5091536;28;20040;-75
2022/09/14 09:39:45;;;;;;;8.70;1.85;;;;;;;;;;5091334;28;20065;-74
2022/09/14 09:42:25;;;;;;;11.23;1.88;;;;;;;;;;5091148;28;20103;-74
2022/09/14 09:45:01;;;;;;;;;;;;;;;;;;5092082;28;20107;-74
2022/09/14 09:47:34;;;;;;;9.68;1.75;;;;;;;;;;5091199;28;19912;-74
2022/09/14 09:50:03;;;;;;;7.95;1.80;;;;;;;;;;5091324;28;20074;-74
2022/09/14 09:52:30;;;;;;;13.93;1.70;;;;;;;;;;5091214;28;20046;-73
2022/09/14 09:54:57;;;;;;;8.25;1.92;;;;;;;;;;5091430;28;20507;-74
2022/09/14 09:57:33;;;;;;;9.55;2.20;;;;;;;;;;5090931;28;20048;-73
2022/09/14 10:00:12;;;;;;;8.95;2.00;;;;;;;;;;5090892;28;20031;-74
2022/09/14 10:02:39;;;;;;;10.48;1.90;;;;;;;;;;5091008;28;20035;-75
2022/09/14 10:05:23;;;;;;;7.95;1.73;;;;;;;;;;5091204;28;20066;-73
2022/09/14 10:07:48;;;;;;;6.80;1.70;;;;;;;;;;5090991;28;20630;-74
2022/09/14 10:10:16;;;;;;;8.98;1.75;;;;;;;;;;5091219;28;20111;-74
2022/09/14 10:12:47;;;;;;;10.35;2.30;;;;;;;;;;5090675;28;20420;-74
2022/09/14 10:15:19;;;;;;;8.50;1.70;;;;;;;;;;5072620;28;20078;-74
2022/09/14 10:18:07;;;;;;;8.50;1.90;;;;;;;;;;5090508;28;20043;-74
2022/09/14 10:20:34;;;;;;;8.80;1.83;;;;;;;;;;5090562;28;20422;-74
2022/09/14 10:23:21;;;;;;;7.35;1.80;;;;;;;;;;5090677;28;20123;-75
2022/09/14 10:25:49;;;;;;;10.80;1.75;;;;;;;;;;5090707;28;20397;-75
2022/09/14 10:28:27;;;;;;;7.30;1.90;;;;;;;;;;5090572;28;20050;-74
2022/09/14 10:31:00;;;;;;;11.20;2.05;;;;;;;;;;5090280;28;20508;-75
2022/09/14 10:33:25;;;;;;;9.27;2.22;;;;;;;;;;5090584;28;20032;-74
2022/09/14 10:36:08;;;;;;;7.47;1.90;;;;;;;;;;5090413;28;20027;-74
2022/09/14 10:39:18;;;;;;;8.00;2.30;;;;;;;;;;5090713;28;20480;-74
2022/09/14 10:41:52;;;;;;;8.13;1.92;;;;;;;;;;4971650;28;20434;-74
2022/09/14 10:44:45;;;;;;;8.25;1.75;;;;;;;;;;5081164;28;20039;-74
2022/09/14 10:47:38;;;;;;;6.93;1.60;;;;;;;;;;5090255;28;20465;-74
2022/09/14 10:50:25;;;;;;;7.72;1.80;;;;;;;;;;5090072;28;20125;-74
2022/09/14 10:53:22;;;;;;;7.85;1.65;;;;;;;;;;5090074;28;20068;-75
2022/09/14 10:56:27;;;;;;;8.70;1.85;;;;;;;;;;5090493;28;20016;-74
2022/09/14 10:58:52;;;;;;;7.53;1.70;;;;;;;;;;5038257;28;20637;-74
2022/09/14 11:01:23;;;;;;;5.55;1.60;;;;;;;;;;5090138;28;20039;-74
2022/09/14 11:04:06;;;;;;;7.63;2.00;;;;;;;;;;5089932;28;20089;-75
2022/09/14 11:06:54;;;;;;;10.38;2.20;;;;;;;;;;5089609;28;20040;-74
2022/09/14 11:09:28;;;;;;;8.55;2.20;;;;;;;;;;5089858;28;20024;-74
2022/09/14 11:12:23;;;;;;;7.90;1.85;;;;;;;;;;5089759;28;20016;-74
2022/09/14 11:14:58;;;;;;;7.38;1.60;;;;;;;;;;5089638;28;20031;-74
2022/09/14 11:17:54;;;;;;;6.85;1.90;;;;;;;;;;5089778;28;20484;-74
2022/09/14 11:20:29;;;;;;;6.80;1.90;;;;;;;;;;5089890;28;20482;-74
2022/09/14 11:23:12;;;;;;;9.18;1.92;;;;;;;;;;5089720;28;20024;-75
2022/09/14 11:25:51;;;;;;;8.35;1.80;;;;;;;;;;5089718;28;20028;-74
2022/09/14 11:28:19;;;;;;;6.72;1.75;;;;;;;;;;5089351;28;20414;-74
2022/09/14 11:30:53;;;;;;;7.13;1.63;;;;;;;;;;5089831;28;20028;-74
2022/09/14 11:33:30;;;;;;;5.82;1.52;;;;;;;;;;5089720;28;20043;-74
2022/09/14 11:36:03;;;;;;;8.10;1.98;;;;;;;;;;5089960;28;20491;-75
2022/09/14 11:38:34;;;;;;;6.00;1.70;;;;;;;;;;5089665;28;20111;-75
2022/09/14 11:41:18;;;;;;;8.35;1.90;;;;;;;;;;5089661;28;20035;-74
2022/09/14 11:44:29;;;;;;;7.65;1.90;;;;;;;;;;5089319;28;20028;-75
2022/09/14 11:47:07;;;;;;;7.05;1.50;;;;;;;;;;5075653;28;20036;-75
2022/09/14 11:49:33;;;;;;;7.15;1.70;;;;;;;;;;5089378;28;20024;-75
2022/09/14 11:52:20;;;;;;;6.25;1.70;;;;;;;;;;5089703;28;20078;-74
2022/09/14 11:54:47;;;;;;;8.88;1.90;;;;;;;;;;5089681;28;20027;-74
2022/09/14 11:57:18;;;;;;;6.75;1.50;;;;;;;;;;5089342;28;20039;-74
2022/09/14 11:59:49;;;;;;;6.85;1.90;;;;;;;;;;5089351;28;20402;-74
2022/09/14 12:02:24;;;;;;;9.00;1.90;;;;;;;;;;5089340;28;20055;-75
2022/09/14 12:05:15;;;;;;;7.50;1.83;;;;;;;;;;5089438;28;20020;-75
2022/09/14 12:10:15;;;;;;;8.38;1.67;;;;;;;;;;5089617;28;20024;-74
2022/09/14 12:12:49;;;;;;;7.28;1.80;;;;;;;;;;5089359;28;20024;-75
2022/09/14 12:15:26;;;;;;;7.80;1.70;;;;;;;;;;5089439;28;20590;-76
2022/09/14 12:18:12;;;;;;;8.32;1.80;;;;;;;;;;5070803;28;20516;-75
2022/09/14 12:20:39;;;;;;;7.82;2.00;;;;;;;;;;5088943;28;20038;-75
2022/09/14 12:23:26;;;;;;;8.05;1.90;;;;;;;;;;5089190;28;20028;-75
2022/09/14 12:26:18;;;;;;;10.93;2.00;;;;;;;;;;5078319;28;20043;-75
2022/09/14 12:28:49;;;;;;;6.63;1.67;;;;;;;;;;5092397;28;20097;-75
2022/09/14 12:31:29;;;;;;;9.65;1.77;;;;;;;;;;5092828;28;20118;-74
2022/09/14 12:34:04;;;;;;;7.85;1.60;;;;;;;;;;5092642;28;20077;-75
2022/09/14 12:36:36;;;;;;;6.63;1.58;;;;;;;;;;5092911;28;20020;-75
2022/09/14 12:39:01;;;;;;;6.80;1.63;;;;;;;;;;5092534;28;20031;-76
2022/09/14 12:41:27;;;;;;;8.95;1.75;;;;;;;;;;5092594;28;20020;-78
2022/09/14 12:43:53;;;;;;;9.00;1.50;;;;;;;;;;5092553;28;20031;-75
2022/09/14 12:46:18;;;;;;;9.57;1.83;;;;;;;;;;5092969;28;20031;-76
2022/09/14 12:48:47;;;;;;;7.47;1.70;;;;;;;;;;5092371;28;20525;-75
2022/09/14 12:51:31;;;;;;;8.13;1.83;;;;;;;;;;5092371;28;20028;-75
2022/09/14 12:54:15;;;;;;;6.32;1.80;;;;;;;;;;5092276;28;20023;-75
2022/09/14 12:56:59;;;;;;;4.25;1.50;;;;;;;;;;5074323;28;20465;-74
2022/09/14 13:00:00;;;;;;;8.18;1.60;;;;;;;;;;5092189;28;20023;-75
2022/09/14 13:02:46;;;;;;;8.30;1.73;;;;;;;;;;5092354;28;20024;-74
2022/09/14 13:05:24;;;;;;;10.07;1.90;;;;;;;;;;5092418;28;20031;-74
2022/09/14 13:07:50;;;;;;;8.73;1.60;;;;;;;;;;5103418;28;20104;-75
2022/09/14 13:10:33;;;;;;;6.60;1.70;;;;;;;;;;5112500;28;20023;-76
2022/09/14 13:13:07;;;;;;;8.40;1.77;;;;;;;;;;5112167;28;20031;-75
2022/09/14 13:15:47;;;;;;;7.47;1.50;;;;;;;;;;5112535;28;20027;-76
2022/09/14 13:18:18;;;;;;;7.50;1.45;;;;;;;;;;5112631;28;20070;-76
2022/09/14 13:20:52;;;;;;;7.80;1.50;;;;;;;;;;5112478;28;20063;-75
2022/09/14 13:23:19;;;;;;;7.15;1.60;;;;;;;;;;5112184;28;20032;-75
2022/09/14 13:25:44;;;;;;;5.57;1.45;;;;;;;;;;5112515;28;20069;-76
2022/09/14 13:28:15;;;;;;;7.95;1.63;;;;;;;;;;5111846;28;20553;-76
2022/09/14 13:30:41;;;;;;;6.20;1.60;;;;;;;;;;5111999;28;20399;-76
2022/09/14 13:33:15;;;;;;;6.22;1.60;;;;;;;;;;5112075;28;20390;-75
2022/09/14 13:35:50;;;;;;;6.47;1.80;;;;;;;;;;5112441;28;20188;-76
2022/09/14 13:38:18;;;;;;;6.75;1.70;;;;;;;;;;5111770;28;20020;-76
2022/09/14 13:40:46;;;;;;;4.93;1.60;;;;;;;;;;5112065;28;20106;-78
2022/09/14 13:43:11;;;;;;;6.13;1.65;;;;;;;;;;5110413;28;20458;-78
2022/09/14 13:45:38;;;;;;;4.82;1.52;;;;;;;;;;5112017;28;20157;-79
2022/09/14 13:48:04;;;;;;;10.63;1.60;;;;;;;;;;5111553;28;20403;-76
2022/09/14 13:50:32;;;;;;;7.97;1.70;;;;;;;;;;5111678;28;20406;-78
2022/09/14 13:52:57;;;;;;;8.98;1.73;;;;;;;;;;5111816;28;20030;-77
2022/09/14 13:55:40;;;;;;;7.07;1.40;;;;;;;;;;5111660;28;20039;-77
2022/09/14 13:58:08;;;;;;;7.10;2.00;;;;;;;;;;5111544;28;20108;-75
2022/09/14 14:00:54;;;;;;;9.55;1.67;;;;;;;;;;5111459;28;20464;-77
2022/09/14 14:03:31;;;;;;;9.77;2.10;;;;;;;;;;5111456;28;20034;-75
2022/09/14 14:05:58;;;;;;;5.70;1.83;;;;;;;;;;5109330;28;20639;-74
2022/09/14 14:08:35;;;;;;;7.28;1.70;;;;;;;;;;5090869;28;20032;-74
2022/09/14 14:11:03;;;;;;;5.78;1.88;;;;;;;;;;5091140;28;20025;-75
2022/09/14 14:13:32;;;;;;;6.40;1.60;;;;;;;;;;5091103;28;20108;-74
2022/09/14 14:16:21;;;;;;;7.07;1.40;;;;;;;;;;5091153;28;20024;-75
2022/09/14 14:18:56;;;;;;;6.68;1.75;;;;;;;;;;5090965;28;20384;-75
2022/09/14 14:21:23;;;;;;;5.97;1.50;;;;;;;;;;5090605;28;20028;-74
2022/09/14 14:24:12;;;;;;;8.13;1.50;;;;;;;;;;5090363;28;20055;-75
2022/09/14 14:26:46;;;;;;;5.25;1.40;;;;;;;;;;5090510;28;20028;-75
2022/09/14 14:29:15;;;;;;;4.70;1.40;;;;;;;;;;5090453;28;20032;-77
2022/09/14 14:31:40;;;;;;;6.05;1.63;;;;;;;;;;5090635;28;20020;-78
2022/09/14 14:34:20;;;;;;;11.95;1.90;;;;;;;;;;5072077;28;20036;-76
2022/09/14 14:36:48;;;;;;;8.30;1.50;;;;;;;;;;5055725;28;20035;-78
2022/09/14 14:39:19;;;;;;;5.13;1.50;;;;;;;;;;5090467;28;20096;-76
2022/09/14 14:41:45;;;;;;;7.65;1.40;;;;;;;;;;5090348;28;20028;-76
2022/09/14 14:44:32;;;;;;;9.23;1.48;;;;;;;;;;5090394;28;20020;-76
2022/09/14 14:46:57;;;;;;;3.72;1.40;;;;;;;;;;5090561;28;20035;-76
2022/09/14 14:49:22;;;;;;;7.53;1.80;;;;;;;;;;5089396;28;20020;-78
2022/09/14 14:51:49;;;;;;;8.10;1.58;;;;;;;;;;5090027;28;20083;-77
2022/09/14 14:54:16;;;;;;;5.05;1.40;;;;;;;;;;5090077;28;20035;-76
2022/09/14 14:56:43;;;;;;;6.72;1.40;;;;;;;;;;5090181;28;20023;-75
2022/09/14 14:59:18;;;;;;;5.95;1.60;;;;;;;;;;5089985;28;20095;-75
2022/09/14 15:01:43;;;;;;;3.95;1.30;;;;;;;;;;5090100;28;20024;-74
2022/09/14 15:04:09;;;;;;;7.93;1.55;;;;;;;;;;5090036;28;20403;-76
2022/09/14 15:06:34;;;;;;;6.32;1.38;;;;;;;;;;5090052;28;20051;-78
2022/09/14 15:09:01;;;;;;;8.18;1.60;;;;;;;;;;5089884;28;20048;-76